sensor_id;sensor_type;location;lat;lon;timestamp;P1;durP1;ratioP1;P2;durP2;ratioP2
59308;SDS011;48433;53.016;-2.260;2022-11-11T00:01:46;12.75;;;3.80;;
59308;SDS011;48433;53.016;-2.260;2022-11-11T00:04:32;8.25;;;3.80;;
59308;SDS011;48433;53.016;-2.260;2022-11-11T00:07:18;9.45;;;3.72;;
59308;SDS011;48433;53.016;-2.260;2022-11-11T00:10:05;7.45;;;3.92;;
59308;SDS011;48433;53.016;-2.260;2022-11-11T00:12:52;8.85;;;3.72;;
59308;SDS011;48433;53.016;-2.260;2022-11-11T00:15:38;10.90;;;3.38;;
59308;SDS011;48433;53.016;-2.260;2022-11-11T00:18:25;9.10;;;3.33;;
59308;SDS011;48433;53.016;-2.260;2022-11-11T00:21:30;7.15;;;2.70;;
59308;SDS011;48433;53.016;-2.260;2022-11-11T00:24:35;8.85;;;3.63;;
59308;SDS011;48433;53.016;-2.260;2022-11-11T00:27:40;8.25;;;2.88;;
59308;SDS011;48433;53.016;-2.260;2022-11-11T00:30:26;7.65;;;2.92;;
59308;SDS011;48433;53.016;-2.260;2022-11-11T00:33:12;7.75;;;2.33;;
59308;SDS011;48433;53.016;-2.260;2022-11-11T00:35:58;9.02;;;2.67;;
59308;SDS011;48433;53.016;-2.260;2022-11-11T00:38:45;6.10;;;2.47;;
59308;SDS011;48433;53.016;-2.260;2022-11-11T00:41:32;6.45;;;2.85;;
59308;SDS011;48433;53.016;-2.260;2022-11-11T00:44:18;7.88;;;2.30;;
59308;SDS011;48433;53.016;-2.260;2022-11-11T00:47:04;7.05;;;2.63;;
59308;SDS011;48433;53.016;-2.260;2022-11-11T00:53:30;5.93;;;2.80;;
59308;SDS011;48433;53.016;-2.260;2022-11-11T00:56:17;10.55;;;3.05;;
59308;SDS011;48433;53.016;-2.260;2022-11-11T00:59:04;7.78;;;3.42;;
59308;SDS011;48433;53.016;-2.260;2022-11-11T01:01:51;7.88;;;3.40;;
59308;SDS011;48433;53.016;-2.260;2022-11-11T01:04:38;5.22;;;2.53;;
59308;SDS011;48433;53.016;-2.260;2022-11-11T01:07:24;9.23;;;3.53;;
59308;SDS011;48433;53.016;-2.260;2022-11-11T01:10:11;5.53;;;2.38;;
59308;SDS011;48433;53.016;-2.260;2022-11-11T01:12:57;6.85;;;2.55;;
59308;SDS011;48433;53.016;-2.260;2022-11-11T01:16:00;8.13;;;2.70;;
59308;SDS011;48433;53.016;-2.260;2022-11-11T01:21:35;5.70;;;2.00;;
59308;SDS011;48433;53.016;-2.260;2022-11-11T01:24:22;9.05;;;2.70;;
59308;SDS011;48433;53.016;-2.260;2022-11-11T01:27:08;8.88;;;1.88;;
59308;SDS011;48433;53.016;-2.260;2022-11-11T01:29:54;5.82;;;2.30;;
59308;SDS011;48433;53.016;-2.260;2022-11-11T01:32:40;7.75;;;2.13;;
59308;SDS011;48433;53.016;-2.260;2022-11-11T01:35:27;7.05;;;1.98;;
59308;SDS011;48433;53.016;-2.260;2022-11-11T01:38:14;6.90;;;2.30;;
59308;SDS011;48433;53.016;-2.260;2022-11-11T01:41:00;5.25;;;1.80;;
59308;SDS011;48433;53.016;-2.260;2022-11-11T01:47:00;11.20;;;2.67;;
59308;SDS011;48433;53.016;-2.260;2022-11-11T01:52:39;6.40;;;2.00;;
59308;SDS011;48433;53.016;-2.260;2022-11-11T01:55:27;8.07;;;2.33;;
59308;SDS011;48433;53.016;-2.260;2022-11-11T01:58:14;8.35;;;2.45;;
59308;SDS011;48433;53.016;-2.260;2022-11-11T02:01:02;7.45;;;2.75;;
59308;SDS011;48433;53.016;-2.260;2022-11-11T02:03:50;8.80;;;2.78;;
59308;SDS011;48433;53.016;-2.260;2022-11-11T02:06:58;7.93;;;3.55;;
59308;SDS011;48433;53.016;-2.260;2022-11-11T02:09:47;11.00;;;3.63;;
59308;SDS011;48433;53.016;-2.260;2022-11-11T02:12:36;8.85;;;3.83;;
59308;SDS011;48433;53.016;-2.260;2022-11-11T02:15:41;7.97;;;2.70;;
59308;SDS011;48433;53.016;-2.260;2022-11-11T02:18:28;7.88;;;3.00;;
59308;SDS011;48433;53.016;-2.260;2022-11-11T02:21:19;7.25;;;2.70;;
59308;SDS011;48433;53.016;-2.260;2022-11-11T02:24:20;8.10;;;3.13;;
59308;SDS011;48433;53.016;-2.260;2022-11-11T02:27:07;7.68;;;2.53;;
59308;SDS011;48433;53.016;-2.260;2022-11-11T02:29:57;9.80;;;2.80;;
59308;SDS011;48433;53.016;-2.260;2022-11-11T02:32:47;7.38;;;3.00;;
59308;SDS011;48433;53.016;-2.260;2022-11-11T02:35:36;5.43;;;2.10;;
59308;SDS011;48433;53.016;-2.260;2022-11-11T02:38:29;9.25;;;2.65;;
59308;SDS011;48433;53.016;-2.260;2022-11-11T02:41:15;7.40;;;1.83;;
59308;SDS011;48433;53.016;-2.260;2022-11-11T02:44:21;4.18;;;1.80;;
59308;SDS011;48433;53.016;-2.260;2022-11-11T02:47:08;7.13;;;2.15;;
59308;SDS011;48433;53.016;-2.260;2022-11-11T02:49:55;4.22;;;1.63;;
59308;SDS011;48433;53.016;-2.260;2022-11-11T02:52:42;9.57;;;2.55;;
59308;SDS011;48433;53.016;-2.260;2022-11-11T02:55:28;5.28;;;1.55;;
59308;SDS011;48433;53.016;-2.260;2022-11-11T02:58:15;6.72;;;1.80;;
59308;SDS011;48433;53.016;-2.260;2022-11-11T03:01:02;5.43;;;2.03;;
59308;SDS011;48433;53.016;-2.260;2022-11-11T03:03:49;7.93;;;2.45;;
59308;SDS011;48433;53.016;-2.260;2022-11-11T03:06:35;6.13;;;2.47;;
59308;SDS011;48433;53.016;-2.260;2022-11-11T03:09:21;8.60;;;2.38;;
59308;SDS011;48433;53.016;-2.260;2022-11-11T03:12:08;7.40;;;2.83;;
59308;SDS011;48433;53.016;-2.260;2022-11-11T03:14:55;8.98;;;3.13;;
59308;SDS011;48433;53.016;-2.260;2022-11-11T03:17:42;7.10;;;3.17;;
59308;SDS011;48433;53.016;-2.260;2022-11-11T03:20:29;8.88;;;3.60;;
59308;SDS011;48433;53.016;-2.260;2022-11-11T03:23:34;8.32;;;2.92;;
59308;SDS011;48433;53.016;-2.260;2022-11-11T03:26:21;7.75;;;3.00;;
59308;SDS011;48433;53.016;-2.260;2022-11-11T03:29:07;7.75;;;2.72;;
59308;SDS011;48433;53.016;-2.260;2022-11-11T03:31:54;6.68;;;2.90;;
59308;SDS011;48433;53.016;-2.260;2022-11-11T03:34:41;7.50;;;2.33;;
59308;SDS011;48433;53.016;-2.260;2022-11-11T03:37:27;5.45;;;2.10;;
59308;SDS011;48433;53.016;-2.260;2022-11-11T03:40:33;7.20;;;2.15;;
59308;SDS011;48433;53.016;-2.260;2022-11-11T03:43:20;5.90;;;1.77;;
59308;SDS011;48433;53.016;-2.260;2022-11-11T03:46:08;6.95;;;1.90;;
59308;SDS011;48433;53.016;-2.260;2022-11-11T03:48:55;6.80;;;2.05;;
59308;SDS011;48433;53.016;-2.260;2022-11-11T03:51:42;6.45;;;2.15;;
59308;SDS011;48433;53.016;-2.260;2022-11-11T03:54:29;7.78;;;2.38;;
59308;SDS011;48433;53.016;-2.260;2022-11-11T03:57:16;7.05;;;1.90;;
59308;SDS011;48433;53.016;-2.260;2022-11-11T04:00:22;6.78;;;2.20;;
59308;SDS011;48433;53.016;-2.260;2022-11-11T04:03:11;6.47;;;2.40;;
59308;SDS011;48433;53.016;-2.260;2022-11-11T04:06:17;6.50;;;2.22;;
59308;SDS011;48433;53.016;-2.260;2022-11-11T04:09:22;7.43;;;1.90;;
59308;SDS011;48433;53.016;-2.260;2022-11-11T04:12:27;6.55;;;1.95;;
59308;SDS011;48433;53.016;-2.260;2022-11-11T04:15:14;6.43;;;2.25;;
59308;SDS011;48433;53.016;-2.260;2022-11-11T04:18:20;8.82;;;2.67;;
59308;SDS011;48433;53.016;-2.260;2022-11-11T04:21:26;7.72;;;1.98;;
59308;SDS011;48433;53.016;-2.260;2022-11-11T04:24:28;6.45;;;2.30;;
59308;SDS011;48433;53.016;-2.260;2022-11-11T04:27:33;6.40;;;2.28;;
59308;SDS011;48433;53.016;-2.260;2022-11-11T04:30:19;7.07;;;2.03;;
59308;SDS011;48433;53.016;-2.260;2022-11-11T04:33:07;9.02;;;2.53;;
59308;SDS011;48433;53.016;-2.260;2022-11-11T04:35:53;9.20;;;2.15;;
59308;SDS011;48433;53.016;-2.260;2022-11-11T04:38:39;6.40;;;2.25;;
59308;SDS011;48433;53.016;-2.260;2022-11-11T04:41:44;8.48;;;2.17;;
59308;SDS011;48433;53.016;-2.260;2022-11-11T04:44:50;9.05;;;1.95;;
59308;SDS011;48433;53.016;-2.260;2022-11-11T04:47:57;6.25;;;2.33;;
59308;SDS011;48433;53.016;-2.260;2022-11-11T04:50:48;10.30;;;2.80;;
59308;SDS011;48433;53.016;-2.260;2022-11-11T04:53:35;7.55;;;2.00;;
59308;SDS011;48433;53.016;-2.260;2022-11-11T04:56:22;5.38;;;2.10;;
59308;SDS011;48433;53.016;-2.260;2022-11-11T04:59:27;6.38;;;2.08;;
59308;SDS011;48433;53.016;-2.260;2022-11-11T05:02:13;8.35;;;3.28;;
59308;SDS011;48433;53.016;-2.260;2022-11-11T05:05:19;6.78;;;2.20;;
59308;SDS011;48433;53.016;-2.260;2022-11-11T05:08:06;7.75;;;2.28;;
59308;SDS011;48433;53.016;-2.260;2022-11-11T05:11:12;6.80;;;2.28;;
59308;SDS011;48433;53.016;-2.260;2022-11-11T05:14:00;8.52;;;2.65;;
59308;SDS011;48433;53.016;-2.260;2022-11-11T05:17:07;5.47;;;1.83;;
59308;SDS011;48433;53.016;-2.260;2022-11-11T05:20:13;8.57;;;2.53;;
59308;SDS011;48433;53.016;-2.260;2022-11-11T05:23:23;7.45;;;2.45;;
59308;SDS011;48433;53.016;-2.260;2022-11-11T05:26:33;7.85;;;2.88;;
59308;SDS011;48433;53.016;-2.260;2022-11-11T05:29:19;6.85;;;2.47;;
59308;SDS011;48433;53.016;-2.260;2022-11-11T05:32:07;8.93;;;2.90;;
59308;SDS011;48433;53.016;-2.260;2022-11-11T05:34:54;9.68;;;3.03;;
59308;SDS011;48433;53.016;-2.260;2022-11-11T05:37:41;6.18;;;3.08;;
59308;SDS011;48433;53.016;-2.260;2022-11-11T05:40:28;6.60;;;2.78;;
59308;SDS011;48433;53.016;-2.260;2022-11-11T05:43:14;8.50;;;3.88;;
59308;SDS011;48433;53.016;-2.260;2022-11-11T05:46:02;11.27;;;3.63;;
59308;SDS011;48433;53.016;-2.260;2022-11-11T05:48:49;9.27;;;3.50;;
59308;SDS011;48433;53.016;-2.260;2022-11-11T05:51:54;8.55;;;2.70;;
59308;SDS011;48433;53.016;-2.260;2022-11-11T05:54:41;8.10;;;2.90;;
59308;SDS011;48433;53.016;-2.260;2022-11-11T05:57:28;9.20;;;2.42;;
59308;SDS011;48433;53.016;-2.260;2022-11-11T06:00:15;5.53;;;2.15;;
59308;SDS011;48433;53.016;-2.260;2022-11-11T06:03:02;7.93;;;2.95;;
59308;SDS011;48433;53.016;-2.260;2022-11-11T06:05:50;8.75;;;2.70;;
59308;SDS011;48433;53.016;-2.260;2022-11-11T06:08:38;6.00;;;1.90;;
59308;SDS011;48433;53.016;-2.260;2022-11-11T06:11:25;8.90;;;2.38;;
59308;SDS011;48433;53.016;-2.260;2022-11-11T06:14:17;5.70;;;1.90;;
59308;SDS011;48433;53.016;-2.260;2022-11-11T06:17:03;6.18;;;2.30;;
59308;SDS011;48433;53.016;-2.260;2022-11-11T06:19:49;6.28;;;2.20;;
59308;SDS011;48433;53.016;-2.260;2022-11-11T06:22:36;6.53;;;2.00;;
59308;SDS011;48433;53.016;-2.260;2022-11-11T06:25:41;5.50;;;1.95;;
59308;SDS011;48433;53.016;-2.260;2022-11-11T06:28:50;6.05;;;2.10;;
59308;SDS011;48433;53.016;-2.260;2022-11-11T06:31:37;4.38;;;1.92;;
59308;SDS011;48433;53.016;-2.260;2022-11-11T06:34:24;7.05;;;2.25;;
59308;SDS011;48433;53.016;-2.260;2022-11-11T06:37:11;6.53;;;2.13;;
59308;SDS011;48433;53.016;-2.260;2022-11-11T06:39:57;7.20;;;2.05;;
59308;SDS011;48433;53.016;-2.260;2022-11-11T06:42:44;5.60;;;2.00;;
59308;SDS011;48433;53.016;-2.260;2022-11-11T06:45:30;6.50;;;1.90;;
59308;SDS011;48433;53.016;-2.260;2022-11-11T06:48:19;7.50;;;2.15;;
59308;SDS011;48433;53.016;-2.260;2022-11-11T06:51:06;7.78;;;2.72;;
59308;SDS011;48433;53.016;-2.260;2022-11-11T06:53:53;7.28;;;2.55;;
59308;SDS011;48433;53.016;-2.260;2022-11-11T06:56:40;6.47;;;2.95;;
59308;SDS011;48433;53.016;-2.260;2022-11-11T06:59:27;9.15;;;3.45;;
59308;SDS011;48433;53.016;-2.260;2022-11-11T07:02:13;8.15;;;3.55;;
59308;SDS011;48433;53.016;-2.260;2022-11-11T07:05:00;9.88;;;3.17;;
59308;SDS011;48433;53.016;-2.260;2022-11-11T07:07:47;6.65;;;2.90;;
59308;SDS011;48433;53.016;-2.260;2022-11-11T07:10:34;6.75;;;2.72;;
59308;SDS011;48433;53.016;-2.260;2022-11-11T07:13:22;8.93;;;3.03;;
59308;SDS011;48433;53.016;-2.260;2022-11-11T07:16:09;5.72;;;2.10;;
59308;SDS011;48433;53.016;-2.260;2022-11-11T07:18:57;9.25;;;2.33;;
59308;SDS011;48433;53.016;-2.260;2022-11-11T07:21:43;5.22;;;1.88;;
59308;SDS011;48433;53.016;-2.260;2022-11-11T07:24:29;10.13;;;2.00;;
59308;SDS011;48433;53.016;-2.260;2022-11-11T07:27:15;9.48;;;2.30;;
59308;SDS011;48433;53.016;-2.260;2022-11-11T07:30:01;6.82;;;2.13;;
59308;SDS011;48433;53.016;-2.260;2022-11-11T07:32:49;10.68;;;2.40;;
59308;SDS011;48433;53.016;-2.260;2022-11-11T07:35:37;7.13;;;1.85;;
59308;SDS011;48433;53.016;-2.260;2022-11-11T07:38:23;8.75;;;2.67;;
59308;SDS011;48433;53.016;-2.260;2022-11-11T07:41:11;5.25;;;1.63;;
59308;SDS011;48433;53.016;-2.260;2022-11-11T07:43:57;5.63;;;1.98;;
59308;SDS011;48433;53.016;-2.260;2022-11-11T07:46:44;4.68;;;2.15;;
59308;SDS011;48433;53.016;-2.260;2022-11-11T07:49:31;7.55;;;2.03;;
59308;SDS011;48433;53.016;-2.260;2022-11-11T07:52:17;5.60;;;2.10;;
59308;SDS011;48433;53.016;-2.260;2022-11-11T07:55:04;6.05;;;2.20;;
59308;SDS011;48433;53.016;-2.260;2022-11-11T07:57:51;4.65;;;1.65;;
59308;SDS011;48433;53.016;-2.260;2022-11-11T08:00:37;4.88;;;1.92;;
59308;SDS011;48433;53.016;-2.260;2022-11-11T08:03:24;5.25;;;2.20;;
59308;SDS011;48433;53.016;-2.260;2022-11-11T08:06:11;6.85;;;1.65;;
59308;SDS011;48433;53.016;-2.260;2022-11-11T08:08:57;7.78;;;2.65;;
59308;SDS011;48433;53.016;-2.260;2022-11-11T08:11:43;7.32;;;2.50;;
59308;SDS011;48433;53.016;-2.260;2022-11-11T08:14:48;8.32;;;2.50;;
59308;SDS011;48433;53.016;-2.260;2022-11-11T08:17:38;7.28;;;2.50;;
59308;SDS011;48433;53.016;-2.260;2022-11-11T08:20:24;9.38;;;2.92;;
59308;SDS011;48433;53.016;-2.260;2022-11-11T08:23:10;8.80;;;2.70;;
59308;SDS011;48433;53.016;-2.260;2022-11-11T08:26:19;6.75;;;2.40;;
59308;SDS011;48433;53.016;-2.260;2022-11-11T08:29:13;6.75;;;2.30;;
59308;SDS011;48433;53.016;-2.260;2022-11-11T08:32:00;4.72;;;2.00;;
59308;SDS011;48433;53.016;-2.260;2022-11-11T08:34:48;7.55;;;2.33;;
59308;SDS011;48433;53.016;-2.260;2022-11-11T08:37:34;8.20;;;2.50;;
59308;SDS011;48433;53.016;-2.260;2022-11-11T08:40:20;7.75;;;2.13;;
59308;SDS011;48433;53.016;-2.260;2022-11-11T08:43:07;5.35;;;2.10;;
59308;SDS011;48433;53.016;-2.260;2022-11-11T08:45:54;10.07;;;2.47;;
59308;SDS011;48433;53.016;-2.260;2022-11-11T08:48:42;6.93;;;1.88;;
59308;SDS011;48433;53.016;-2.260;2022-11-11T08:51:28;3.30;;;1.40;;
59308;SDS011;48433;53.016;-2.260;2022-11-11T08:54:24;5.75;;;1.73;;
59308;SDS011;48433;53.016;-2.260;2022-11-11T08:57:10;3.75;;;1.48;;
59308;SDS011;48433;53.016;-2.260;2022-11-11T08:59:57;6.03;;;1.67;;
59308;SDS011;48433;53.016;-2.260;2022-11-11T09:02:43;8.23;;;1.92;;
59308;SDS011;48433;53.016;-2.260;2022-11-11T09:05:29;9.60;;;2.03;;
59308;SDS011;48433;53.016;-2.260;2022-11-11T09:08:15;6.15;;;2.10;;
59308;SDS011;48433;53.016;-2.260;2022-11-11T09:11:01;10.55;;;2.67;;
59308;SDS011;48433;53.016;-2.260;2022-11-11T09:13:47;5.90;;;1.92;;
59308;SDS011;48433;53.016;-2.260;2022-11-11T09:16:33;5.03;;;1.60;;
59308;SDS011;48433;53.016;-2.260;2022-11-11T09:19:19;4.18;;;1.55;;
59308;SDS011;48433;53.016;-2.260;2022-11-11T09:22:05;7.28;;;2.00;;
59308;SDS011;48433;53.016;-2.260;2022-11-11T09:24:51;6.07;;;2.22;;
59308;SDS011;48433;53.016;-2.260;2022-11-11T09:27:37;4.75;;;1.42;;
59308;SDS011;48433;53.016;-2.260;2022-11-11T09:30:24;5.70;;;1.70;;
59308;SDS011;48433;53.016;-2.260;2022-11-11T09:33:11;3.65;;;1.40;;
59308;SDS011;48433;53.016;-2.260;2022-11-11T09:36:00;4.68;;;1.50;;
59308;SDS011;48433;53.016;-2.260;2022-11-11T09:38:46;4.68;;;1.58;;
59308;SDS011;48433;53.016;-2.260;2022-11-11T09:50:54;5.28;;;1.90;;
59308;SDS011;48433;53.016;-2.260;2022-11-11T09:53:46;9.43;;;1.70;;
59308;SDS011;48433;53.016;-2.260;2022-11-11T09:56:38;7.75;;;1.95;;
59308;SDS011;48433;53.016;-2.260;2022-11-11T09:59:26;5.55;;;1.52;;
59308;SDS011;48433;53.016;-2.260;2022-11-11T10:05:39;4.75;;;1.30;;
59308;SDS011;48433;53.016;-2.260;2022-11-11T10:08:34;8.48;;;1.70;;
59308;SDS011;48433;53.016;-2.260;2022-11-11T10:14:39;7.43;;;1.95;;
59308;SDS011;48433;53.016;-2.260;2022-11-11T10:17:33;6.88;;;1.90;;
59308;SDS011;48433;53.016;-2.260;2022-11-11T10:20:28;5.35;;;1.60;;
59308;SDS011;48433;53.016;-2.260;2022-11-11T10:23:19;5.32;;;1.63;;
59308;SDS011;48433;53.016;-2.260;2022-11-11T10:26:14;3.95;;;1.45;;
59308;SDS011;48433;53.016;-2.260;2022-11-11T10:29:08;7.43;;;1.85;;
59308;SDS011;48433;53.016;-2.260;2022-11-11T10:35:24;7.18;;;2.28;;
59308;SDS011;48433;53.016;-2.260;2022-11-11T10:38:15;7.03;;;1.48;;
59308;SDS011;48433;53.016;-2.260;2022-11-11T10:44:31;7.57;;;1.98;;
59308;SDS011;48433;53.016;-2.260;2022-11-11T10:50:42;10.98;;;2.08;;
59308;SDS011;48433;53.016;-2.260;2022-11-11T10:56:34;10.07;;;1.90;;
59308;SDS011;48433;53.016;-2.260;2022-11-11T10:59:32;8.15;;;1.80;;
59308;SDS011;48433;53.016;-2.260;2022-11-11T11:02:32;7.93;;;2.25;;
59308;SDS011;48433;53.016;-2.260;2022-11-11T11:05:47;15.48;;;3.38;;
59308;SDS011;48433;53.016;-2.260;2022-11-11T11:08:50;8.57;;;2.28;;
59308;SDS011;48433;53.016;-2.260;2022-11-11T11:14:45;5.47;;;2.10;;
59308;SDS011;48433;53.016;-2.260;2022-11-11T11:17:39;7.57;;;2.57;;
59308;SDS011;48433;53.016;-2.260;2022-11-11T11:23:46;6.65;;;2.03;;
59308;SDS011;48433;53.016;-2.260;2022-11-11T11:26:46;7.68;;;1.80;;
59308;SDS011;48433;53.016;-2.260;2022-11-11T11:29:38;7.03;;;1.73;;
59308;SDS011;48433;53.016;-2.260;2022-11-11T11:32:30;8.27;;;1.50;;
59308;SDS011;48433;53.016;-2.260;2022-11-11T11:35:28;7.70;;;1.92;;
59308;SDS011;48433;53.016;-2.260;2022-11-11T11:38:41;6.22;;;1.63;;
59308;SDS011;48433;53.016;-2.260;2022-11-11T11:41:41;4.88;;;1.33;;
59308;SDS011;48433;53.016;-2.260;2022-11-11T11:44:30;2.38;;;1.15;;
59308;SDS011;48433;53.016;-2.260;2022-11-11T11:47:27;6.78;;;1.30;;
59308;SDS011;48433;53.016;-2.260;2022-11-11T11:50:51;3.22;;;1.08;;
59308;SDS011;48433;53.016;-2.260;2022-11-11T11:56:55;4.05;;;1.35;;
59308;SDS011;48433;53.016;-2.260;2022-11-11T11:59:49;3.47;;;1.20;;
59308;SDS011;48433;53.016;-2.260;2022-11-11T12:09:03;4.20;;;0.90;;
59308;SDS011;48433;53.016;-2.260;2022-11-11T12:15:02;3.65;;;0.82;;
59308;SDS011;48433;53.016;-2.260;2022-11-11T12:21:28;3.28;;;0.80;;
59308;SDS011;48433;53.016;-2.260;2022-11-11T12:24:45;5.47;;;1.25;;
59308;SDS011;48433;53.016;-2.260;2022-11-11T12:27:54;5.93;;;1.10;;
59308;SDS011;48433;53.016;-2.260;2022-11-11T12:30:51;6.45;;;1.15;;
59308;SDS011;48433;53.016;-2.260;2022-11-11T12:34:31;4.82;;;0.90;;
59308;SDS011;48433;53.016;-2.260;2022-11-11T12:43:28;2.97;;;0.73;;
59308;SDS011;48433;53.016;-2.260;2022-11-11T12:55:29;4.30;;;1.42;;
59308;SDS011;48433;53.016;-2.260;2022-11-11T12:58:30;4.93;;;0.82;;
59308;SDS011;48433;53.016;-2.260;2022-11-11T13:10:26;3.67;;;1.00;;
59308;SDS011;48433;53.016;-2.260;2022-11-11T13:16:27;4.13;;;1.00;;
59308;SDS011;48433;53.016;-2.260;2022-11-11T13:19:24;3.35;;;1.00;;
59308;SDS011;48433;53.016;-2.260;2022-11-11T13:22:17;7.07;;;1.40;;
59308;SDS011;48433;53.016;-2.260;2022-11-11T13:25:10;6.35;;;1.30;;
59308;SDS011;48433;53.016;-2.260;2022-11-11T13:31:03;3.45;;;1.10;;
59308;SDS011;48433;53.016;-2.260;2022-11-11T13:33:57;4.45;;;1.08;;
59308;SDS011;48433;53.016;-2.260;2022-11-11T13:36:50;4.07;;;1.00;;
59308;SDS011;48433;53.016;-2.260;2022-11-11T13:39:39;3.65;;;1.13;;
59308;SDS011;48433;53.016;-2.260;2022-11-11T13:42:34;5.88;;;1.20;;
59308;SDS011;48433;53.016;-2.260;2022-11-11T13:45:25;3.10;;;0.80;;
59308;SDS011;48433;53.016;-2.260;2022-11-11T13:48:24;3.45;;;1.13;;
59308;SDS011;48433;53.016;-2.260;2022-11-11T13:51:29;4.35;;;0.93;;
59308;SDS011;48433;53.016;-2.260;2022-11-11T13:54:32;3.42;;;0.90;;
59308;SDS011;48433;53.016;-2.260;2022-11-11T13:57:22;9.23;;;1.83;;
59308;SDS011;48433;53.016;-2.260;2022-11-11T14:09:00;5.65;;;1.25;;
59308;SDS011;48433;53.016;-2.260;2022-11-11T14:11:47;2.88;;;0.93;;
59308;SDS011;48433;53.016;-2.260;2022-11-11T14:17:19;3.95;;;1.35;;
59308;SDS011;48433;53.016;-2.260;2022-11-11T14:23:38;4.28;;;1.48;;
59308;SDS011;48433;53.016;-2.260;2022-11-11T14:26:26;2.60;;;1.02;;
59308;SDS011;48433;53.016;-2.260;2022-11-11T14:29:17;6.20;;;1.30;;
59308;SDS011;48433;53.016;-2.260;2022-11-11T14:47:22;6.70;;;1.40;;
59308;SDS011;48433;53.016;-2.260;2022-11-11T14:53:19;3.67;;;1.50;;
59308;SDS011;48433;53.016;-2.260;2022-11-11T14:56:18;9.38;;;2.13;;
59308;SDS011;48433;53.016;-2.260;2022-11-11T14:59:06;9.20;;;1.60;;
59308;SDS011;48433;53.016;-2.260;2022-11-11T15:01:55;5.80;;;1.80;;
59308;SDS011;48433;53.016;-2.260;2022-11-11T15:04:43;4.97;;;1.55;;
59308;SDS011;48433;53.016;-2.260;2022-11-11T15:07:43;5.00;;;1.55;;
59308;SDS011;48433;53.016;-2.260;2022-11-11T15:10:50;8.50;;;1.73;;
59308;SDS011;48433;53.016;-2.260;2022-11-11T15:14:01;4.60;;;1.52;;
59308;SDS011;48433;53.016;-2.260;2022-11-11T15:23:38;7.13;;;1.50;;
59308;SDS011;48433;53.016;-2.260;2022-11-11T15:26:40;9.10;;;2.10;;
59308;SDS011;48433;53.016;-2.260;2022-11-11T15:32:52;5.07;;;1.90;;
59308;SDS011;48433;53.016;-2.260;2022-11-11T15:36:12;6.45;;;1.75;;
59308;SDS011;48433;53.016;-2.260;2022-11-11T15:39:14;6.28;;;2.15;;
59308;SDS011;48433;53.016;-2.260;2022-11-11T15:42:04;9.35;;;1.83;;
59308;SDS011;48433;53.016;-2.260;2022-11-11T15:44:58;8.75;;;2.38;;
59308;SDS011;48433;53.016;-2.260;2022-11-11T15:47:48;8.95;;;2.28;;
59308;SDS011;48433;53.016;-2.260;2022-11-11T15:50:37;8.30;;;1.90;;
59308;SDS011;48433;53.016;-2.260;2022-11-11T15:53:26;6.07;;;1.80;;
59308;SDS011;48433;53.016;-2.260;2022-11-11T15:56:29;21.42;;;3.63;;
59308;SDS011;48433;53.016;-2.260;2022-11-11T15:59:20;8.13;;;2.40;;
59308;SDS011;48433;53.016;-2.260;2022-11-11T16:02:19;6.45;;;2.03;;
59308;SDS011;48433;53.016;-2.260;2022-11-11T16:05:18;10.38;;;2.55;;
59308;SDS011;48433;53.016;-2.260;2022-11-11T16:08:08;8.00;;;2.15;;
59308;SDS011;48433;53.016;-2.260;2022-11-11T16:11:02;12.38;;;2.40;;
59308;SDS011;48433;53.016;-2.260;2022-11-11T16:13:51;13.55;;;2.60;;
59308;SDS011;48433;53.016;-2.260;2022-11-11T16:16:53;8.18;;;2.30;;
59308;SDS011;48433;53.016;-2.260;2022-11-11T16:19:42;7.45;;;2.50;;
59308;SDS011;48433;53.016;-2.260;2022-11-11T16:22:34;10.00;;;2.58;;
59308;SDS011;48433;53.016;-2.260;2022-11-11T16:25:24;9.75;;;2.35;;
59308;SDS011;48433;53.016;-2.260;2022-11-11T16:28:11;7.97;;;2.65;;
59308;SDS011;48433;53.016;-2.260;2022-11-11T16:30:58;11.90;;;2.88;;
59308;SDS011;48433;53.016;-2.260;2022-11-11T16:33:44;7.25;;;2.67;;
59308;SDS011;48433;53.016;-2.260;2022-11-11T16:36:30;8.52;;;2.70;;
59308;SDS011;48433;53.016;-2.260;2022-11-11T16:39:19;10.48;;;2.70;;
59308;SDS011;48433;53.016;-2.260;2022-11-11T16:45:13;8.43;;;3.05;;
59308;SDS011;48433;53.016;-2.260;2022-11-11T16:48:04;7.55;;;3.20;;
59308;SDS011;48433;53.016;-2.260;2022-11-11T16:50:56;6.07;;;2.50;;
59308;SDS011;48433;53.016;-2.260;2022-11-11T16:53:56;9.05;;;2.65;;
59308;SDS011;48433;53.016;-2.260;2022-11-11T16:56:57;9.77;;;2.85;;
59308;SDS011;48433;53.016;-2.260;2022-11-11T16:59:45;10.18;;;3.65;;
59308;SDS011;48433;53.016;-2.260;2022-11-11T17:02:35;9.30;;;2.80;;
59308;SDS011;48433;53.016;-2.260;2022-11-11T17:05:44;8.85;;;2.42;;
59308;SDS011;48433;53.016;-2.260;2022-11-11T17:11:42;11.85;;;3.03;;
59308;SDS011;48433;53.016;-2.260;2022-11-11T17:14:29;8.27;;;2.75;;
59308;SDS011;48433;53.016;-2.260;2022-11-11T17:17:18;8.88;;;2.53;;
59308;SDS011;48433;53.016;-2.260;2022-11-11T17:22:56;7.20;;;2.38;;
59308;SDS011;48433;53.016;-2.260;2022-11-11T17:25:43;9.48;;;2.40;;
59308;SDS011;48433;53.016;-2.260;2022-11-11T17:28:30;6.18;;;2.35;;
59308;SDS011;48433;53.016;-2.260;2022-11-11T17:31:18;11.68;;;2.85;;
59308;SDS011;48433;53.016;-2.260;2022-11-11T17:34:08;7.53;;;1.70;;
59308;SDS011;48433;53.016;-2.260;2022-11-11T17:36:55;5.18;;;1.80;;
59308;SDS011;48433;53.016;-2.260;2022-11-11T17:39:41;8.13;;;1.80;;
59308;SDS011;48433;53.016;-2.260;2022-11-11T17:42:30;3.78;;;1.48;;
59308;SDS011;48433;53.016;-2.260;2022-11-11T17:45:16;7.53;;;1.88;;
59308;SDS011;48433;53.016;-2.260;2022-11-11T17:48:02;6.72;;;1.48;;
59308;SDS011;48433;53.016;-2.260;2022-11-11T17:50:49;5.20;;;1.95;;
59308;SDS011;48433;53.016;-2.260;2022-11-11T17:53:35;7.82;;;2.97;;
59308;SDS011;48433;53.016;-2.260;2022-11-11T17:56:22;11.95;;;2.80;;
59308;SDS011;48433;53.016;-2.260;2022-11-11T17:59:11;8.07;;;1.77;;
59308;SDS011;48433;53.016;-2.260;2022-11-11T18:01:57;7.15;;;2.50;;
59308;SDS011;48433;53.016;-2.260;2022-11-11T18:04:45;8.05;;;2.17;;
59308;SDS011;48433;53.016;-2.260;2022-11-11T18:07:30;6.28;;;2.05;;
59308;SDS011;48433;53.016;-2.260;2022-11-11T18:10:16;9.88;;;2.05;;
59308;SDS011;48433;53.016;-2.260;2022-11-11T18:13:02;9.63;;;2.78;;
59308;SDS011;48433;53.016;-2.260;2022-11-11T18:15:48;6.65;;;2.25;;
59308;SDS011;48433;53.016;-2.260;2022-11-11T18:18:34;10.45;;;2.70;;
59308;SDS011;48433;53.016;-2.260;2022-11-11T18:21:21;10.30;;;2.63;;
59308;SDS011;48433;53.016;-2.260;2022-11-11T18:24:08;11.63;;;3.58;;
59308;SDS011;48433;53.016;-2.260;2022-11-11T18:26:54;9.65;;;2.75;;
59308;SDS011;48433;53.016;-2.260;2022-11-11T18:29:41;13.00;;;2.72;;
59308;SDS011;48433;53.016;-2.260;2022-11-11T18:32:27;8.52;;;2.72;;
59308;SDS011;48433;53.016;-2.260;2022-11-11T18:35:13;11.32;;;2.75;;
59308;SDS011;48433;53.016;-2.260;2022-11-11T18:38:01;8.68;;;2.15;;
59308;SDS011;48433;53.016;-2.260;2022-11-11T18:40:49;6.90;;;2.75;;
59308;SDS011;48433;53.016;-2.260;2022-11-11T18:43:35;9.23;;;2.70;;
59308;SDS011;48433;53.016;-2.260;2022-11-11T18:46:25;11.35;;;2.55;;
59308;SDS011;48433;53.016;-2.260;2022-11-11T18:49:16;8.88;;;2.42;;
59308;SDS011;48433;53.016;-2.260;2022-11-11T18:52:02;6.47;;;2.30;;
59308;SDS011;48433;53.016;-2.260;2022-11-11T18:54:48;8.52;;;2.60;;
59308;SDS011;48433;53.016;-2.260;2022-11-11T18:57:35;10.18;;;3.20;;
59308;SDS011;48433;53.016;-2.260;2022-11-11T19:00:22;10.88;;;2.45;;
59308;SDS011;48433;53.016;-2.260;2022-11-11T19:03:08;8.93;;;2.67;;
59308;SDS011;48433;53.016;-2.260;2022-11-11T19:05:57;7.72;;;2.45;;
59308;SDS011;48433;53.016;-2.260;2022-11-11T19:08:55;10.73;;;2.88;;
59308;SDS011;48433;53.016;-2.260;2022-11-11T19:11:43;9.35;;;3.38;;
59308;SDS011;48433;53.016;-2.260;2022-11-11T19:14:31;9.45;;;2.60;;
59308;SDS011;48433;53.016;-2.260;2022-11-11T19:17:16;8.88;;;2.75;;
59308;SDS011;48433;53.016;-2.260;2022-11-11T19:20:03;10.88;;;2.35;;
59308;SDS011;48433;53.016;-2.260;2022-11-11T19:22:50;6.82;;;2.33;;